sensor_id;sensor_type;location;lat;lon;timestamp;temperature;humidity
62998;DHT22;55949;52.590;7.330;2022-12-07T00:00:45;4.40;99.90
62998;DHT22;55949;52.590;7.330;2022-12-07T00:01:46;4.30;99.90
62998;DHT22;55949;52.590;7.330;2022-12-07T00:02:47;4.30;99.90
62998;DHT22;55949;52.590;7.330;2022-12-07T00:03:50;4.40;99.90
62998;DHT22;55949;52.590;7.330;2022-12-07T00:04:51;4.30;99.90
62998;DHT22;55949;52.590;7.330;2022-12-07T00:05:52;4.30;99.90
62998;DHT22;55949;52.590;7.330;2022-12-07T00:06:53;4.30;99.90
62998;DHT22;55949;52.590;7.330;2022-12-07T00:07:53;4.20;99.90
62998;DHT22;55949;52.590;7.330;2022-12-07T00:08:54;4.20;99.90
62998;DHT22;55949;52.590;7.330;2022-12-07T00:09:55;4.20;99.90
62998;DHT22;55949;52.590;7.330;2022-12-07T00:11:04;4.20;99.90
62998;DHT22;55949;52.590;7.330;2022-12-07T00:12:05;4.10;99.90
62998;DHT22;55949;52.590;7.330;2022-12-07T00:13:06;4.10;99.90
62998;DHT22;55949;52.590;7.330;2022-12-07T00:14:10;4.10;99.90
62998;DHT22;55949;52.590;7.330;2022-12-07T00:15:12;4.10;99.90
62998;DHT22;55949;52.590;7.330;2022-12-07T00:16:17;4.00;99.90
62998;DHT22;55949;52.590;7.330;2022-12-07T00:17:18;4.10;99.90
62998;DHT22;55949;52.590;7.330;2022-12-07T00:18:19;4.10;99.90
62998;DHT22;55949;52.590;7.330;2022-12-07T00:19:20;4.10;99.90
62998;DHT22;55949;52.590;7.330;2022-12-07T00:20:20;4.10;99.90
62998;DHT22;55949;52.590;7.330;2022-12-07T00:21:26;4.20;99.90
62998;DHT22;55949;52.590;7.330;2022-12-07T00:22:27;4.20;99.90
62998;DHT22;55949;52.590;7.330;2022-12-07T00:23:28;4.00;99.90
62998;DHT22;55949;52.590;7.330;2022-12-07T00:24:29;4.10;99.90
62998;DHT22;55949;52.590;7.330;2022-12-07T00:25:30;4.10;99.90
62998;DHT22;55949;52.590;7.330;2022-12-07T00:26:36;4.10;99.90
62998;DHT22;55949;52.590;7.330;2022-12-07T00:27:37;4.00;99.90
62998;DHT22;55949;52.590;7.330;2022-12-07T00:28:38;4.00;99.90
62998;DHT22;55949;52.590;7.330;2022-12-07T00:29:39;4.00;99.90
62998;DHT22;55949;52.590;7.330;2022-12-07T00:30:40;4.00;99.90
62998;DHT22;55949;52.590;7.330;2022-12-07T00:31:40;4.00;99.90
62998;DHT22;55949;52.590;7.330;2022-12-07T00:32:41;4.00;99.90
62998;DHT22;55949;52.590;7.330;2022-12-07T00:33:42;4.00;99.90
62998;DHT22;55949;52.590;7.330;2022-12-07T00:34:42;4.00;99.90
62998;DHT22;55949;52.590;7.330;2022-12-07T00:35:43;4.00;99.90
62998;DHT22;55949;52.590;7.330;2022-12-07T00:36:44;4.00;99.90
62998;DHT22;55949;52.590;7.330;2022-12-07T00:37:45;4.00;99.90
62998;DHT22;55949;52.590;7.330;2022-12-07T00:38:46;4.00;99.90
62998;DHT22;55949;52.590;7.330;2022-12-07T00:39:46;4.00;99.90
62998;DHT22;55949;52.590;7.330;2022-12-07T00:40:55;4.10;99.90
62998;DHT22;55949;52.590;7.330;2022-12-07T00:41:55;3.90;99.90
62998;DHT22;55949;52.590;7.330;2022-12-07T00:42:56;4.00;99.90
62998;DHT22;55949;52.590;7.330;2022-12-07T00:43:57;3.90;99.90
62998;DHT22;55949;52.590;7.330;2022-12-07T00:44:57;3.90;99.90
62998;DHT22;55949;52.590;7.330;2022-12-07T00:45:58;3.90;99.90
62998;DHT22;55949;52.590;7.330;2022-12-07T00:46:59;3.90;99.90
62998;DHT22;55949;52.590;7.330;2022-12-07T00:48:01;3.80;99.90
62998;DHT22;55949;52.590;7.330;2022-12-07T00:49:01;3.90;99.90
62998;DHT22;55949;52.590;7.330;2022-12-07T00:50:02;3.90;99.90
62998;DHT22;55949;52.590;7.330;2022-12-07T00:51:04;3.90;99.90
62998;DHT22;55949;52.590;7.330;2022-12-07T00:52:05;3.90;99.90
62998;DHT22;55949;52.590;7.330;2022-12-07T00:53:05;4.00;99.90
62998;DHT22;55949;52.590;7.330;2022-12-07T00:54:06;3.90;99.90
62998;DHT22;55949;52.590;7.330;2022-12-07T00:55:07;4.00;99.90
62998;DHT22;55949;52.590;7.330;2022-12-07T00:56:11;3.90;99.90
62998;DHT22;55949;52.590;7.330;2022-12-07T00:57:12;3.90;99.90
62998;DHT22;55949;52.590;7.330;2022-12-07T00:58:13;3.90;99.90
62998;DHT22;55949;52.590;7.330;2022-12-07T00:59:13;3.90;99.90
62998;DHT22;55949;52.590;7.330;2022-12-07T01:00:15;4.00;99.90
62998;DHT22;55949;52.590;7.330;2022-12-07T01:01:16;3.90;99.90
62998;DHT22;55949;52.590;7.330;2022-12-07T01:02:16;3.80;99.90
62998;DHT22;55949;52.590;7.330;2022-12-07T01:03:17;3.80;99.90
62998;DHT22;55949;52.590;7.330;2022-12-07T01:04:18;3.90;99.90
62998;DHT22;55949;52.590;7.330;2022-12-07T01:05:19;3.90;99.90
62998;DHT22;55949;52.590;7.330;2022-12-07T01:06:21;3.90;99.90
62998;DHT22;55949;52.590;7.330;2022-12-07T01:07:22;3.90;99.90
62998;DHT22;55949;52.590;7.330;2022-12-07T01:08:24;3.80;99.90
62998;DHT22;55949;52.590;7.330;2022-12-07T01:09:25;3.90;99.90
62998;DHT22;55949;52.590;7.330;2022-12-07T01:10:27;3.90;99.90
62998;DHT22;55949;52.590;7.330;2022-12-07T01:11:29;4.00;99.90
62998;DHT22;55949;52.590;7.330;2022-12-07T01:12:30;3.70;99.90
62998;DHT22;55949;52.590;7.330;2022-12-07T01:13:31;3.80;99.90
62998;DHT22;55949;52.590;7.330;2022-12-07T01:14:32;3.80;99.90
62998;DHT22;55949;52.590;7.330;2022-12-07T01:15:33;3.90;99.90
62998;DHT22;55949;52.590;7.330;2022-12-07T01:16:34;4.00;99.90
62998;DHT22;55949;52.590;7.330;2022-12-07T01:17:34;3.80;99.90
62998;DHT22;55949;52.590;7.330;2022-12-07T01:18:36;3.70;99.90
62998;DHT22;55949;52.590;7.330;2022-12-07T01:19:37;3.70;99.90
62998;DHT22;55949;52.590;7.330;2022-12-07T01:20:38;3.80;99.90
62998;DHT22;55949;52.590;7.330;2022-12-07T01:21:39;3.80;99.90
62998;DHT22;55949;52.590;7.330;2022-12-07T01:22:40;3.90;99.90
62998;DHT22;55949;52.590;7.330;2022-12-07T01:23:41;3.90;99.90
62998;DHT22;55949;52.590;7.330;2022-12-07T01:24:42;3.90;99.90
62998;DHT22;55949;52.590;7.330;2022-12-07T01:25:43;3.90;99.90
62998;DHT22;55949;52.590;7.330;2022-12-07T01:26:43;4.00;99.90
62998;DHT22;55949;52.590;7.330;2022-12-07T01:27:44;4.00;99.90
62998;DHT22;55949;52.590;7.330;2022-12-07T01:28:45;4.00;99.90
62998;DHT22;55949;52.590;7.330;2022-12-07T01:29:45;4.00;99.90
62998;DHT22;55949;52.590;7.330;2022-12-07T01:31:13;4.00;99.90
62998;DHT22;55949;52.590;7.330;2022-12-07T01:32:15;4.00;99.90
62998;DHT22;55949;52.590;7.330;2022-12-07T01:33:16;4.00;99.90
62998;DHT22;55949;52.590;7.330;2022-12-07T01:34:16;4.10;99.90
62998;DHT22;55949;52.590;7.330;2022-12-07T01:35:17;3.90;99.90
62998;DHT22;55949;52.590;7.330;2022-12-07T01:36:21;3.80;99.90
62998;DHT22;55949;52.590;7.330;2022-12-07T01:37:22;3.90;99.90
62998;DHT22;55949;52.590;7.330;2022-12-07T01:38:23;3.90;99.90
62998;DHT22;55949;52.590;7.330;2022-12-07T01:39:24;4.00;99.90
62998;DHT22;55949;52.590;7.330;2022-12-07T01:40:25;4.10;99.90
62998;DHT22;55949;52.590;7.330;2022-12-07T01:41:31;4.10;99.90
62998;DHT22;55949;52.590;7.330;2022-12-07T01:42:32;4.10;99.90
62998;DHT22;55949;52.590;7.330;2022-12-07T01:43:33;4.10;99.90
62998;DHT22;55949;52.590;7.330;2022-12-07T01:46:14;4.00;99.90
62998;DHT22;55949;52.590;7.330;2022-12-07T01:47:14;4.10;99.90
62998;DHT22;55949;52.590;7.330;2022-12-07T01:48:17;4.10;99.90
62998;DHT22;55949;52.590;7.330;2022-12-07T01:49:40;4.10;99.90
62998;DHT22;55949;52.590;7.330;2022-12-07T01:50:44;4.10;99.90
62998;DHT22;55949;52.590;7.330;2022-12-07T01:51:46;4.00;99.90
62998;DHT22;55949;52.590;7.330;2022-12-07T01:52:50;4.10;99.90
62998;DHT22;55949;52.590;7.330;2022-12-07T01:53:51;4.10;99.90
62998;DHT22;55949;52.590;7.330;2022-12-07T01:54:55;4.20;99.90
62998;DHT22;55949;52.590;7.330;2022-12-07T01:55:57;4.20;99.90
62998;DHT22;55949;52.590;7.330;2022-12-07T01:56:59;4.10;99.90
62998;DHT22;55949;52.590;7.330;2022-12-07T01:58:00;4.10;99.90
62998;DHT22;55949;52.590;7.330;2022-12-07T01:59:01;4.10;99.90
62998;DHT22;55949;52.590;7.330;2022-12-07T02:00:04;4.10;99.90
62998;DHT22;55949;52.590;7.330;2022-12-07T02:01:06;4.10;99.90
62998;DHT22;55949;52.590;7.330;2022-12-07T02:02:12;4.10;99.90
62998;DHT22;55949;52.590;7.330;2022-12-07T02:03:19;4.10;99.90
62998;DHT22;55949;52.590;7.330;2022-12-07T02:04:22;4.20;99.90
62998;DHT22;55949;52.590;7.330;2022-12-07T02:05:24;4.20;99.90
62998;DHT22;55949;52.590;7.330;2022-12-07T02:06:25;4.20;99.90
62998;DHT22;55949;52.590;7.330;2022-12-07T02:07:28;4.10;99.90
62998;DHT22;55949;52.590;7.330;2022-12-07T02:08:29;4.10;99.90
62998;DHT22;55949;52.590;7.330;2022-12-07T02:09:29;4.10;99.90
62998;DHT22;55949;52.590;7.330;2022-12-07T02:10:31;4.10;99.90
62998;DHT22;55949;52.590;7.330;2022-12-07T02:11:32;4.10;99.90
62998;DHT22;55949;52.590;7.330;2022-12-07T02:12:32;4.10;99.90
62998;DHT22;55949;52.590;7.330;2022-12-07T02:13:35;4.00;99.90
62998;DHT22;55949;52.590;7.330;2022-12-07T02:14:36;4.00;99.90
62998;DHT22;55949;52.590;7.330;2022-12-07T02:18:10;4.00;99.90
62998;DHT22;55949;52.590;7.330;2022-12-07T02:20:34;4.00;99.90
62998;DHT22;55949;52.590;7.330;2022-12-07T02:29:33;3.90;99.90
62998;DHT22;55949;52.590;7.330;2022-12-07T02:30:42;4.00;99.90
62998;DHT22;55949;52.590;7.330;2022-12-07T02:32:10;4.00;99.90
62998;DHT22;55949;52.590;7.330;2022-12-07T02:33:16;4.00;99.90
62998;DHT22;55949;52.590;7.330;2022-12-07T02:34:34;4.10;99.90
62998;DHT22;55949;52.590;7.330;2022-12-07T02:35:55;4.00;99.90
62998;DHT22;55949;52.590;7.330;2022-12-07T02:37:03;4.00;99.90
62998;DHT22;55949;52.590;7.330;2022-12-07T02:38:26;4.00;99.90
62998;DHT22;55949;52.590;7.330;2022-12-07T02:39:30;3.90;99.90
62998;DHT22;55949;52.590;7.330;2022-12-07T02:41:47;3.90;99.90
62998;DHT22;55949;52.590;7.330;2022-12-07T02:42:58;4.00;99.90
62998;DHT22;55949;52.590;7.330;2022-12-07T02:44:03;4.00;99.90
62998;DHT22;55949;52.590;7.330;2022-12-07T02:45:07;4.00;99.90
62998;DHT22;55949;52.590;7.330;2022-12-07T02:46:17;3.80;99.90
62998;DHT22;55949;52.590;7.330;2022-12-07T02:47:21;3.80;99.90
62998;DHT22;55949;52.590;7.330;2022-12-07T02:48:25;3.80;99.90
62998;DHT22;55949;52.590;7.330;2022-12-07T02:49:29;3.90;99.90
62998;DHT22;55949;52.590;7.330;2022-12-07T02:50:30;3.90;99.90
62998;DHT22;55949;52.590;7.330;2022-12-07T02:51:32;3.90;99.90
62998;DHT22;55949;52.590;7.330;2022-12-07T02:52:33;3.90;99.90
62998;DHT22;55949;52.590;7.330;2022-12-07T02:53:42;3.80;99.90
62998;DHT22;55949;52.590;7.330;2022-12-07T02:54:43;3.80;99.90
62998;DHT22;55949;52.590;7.330;2022-12-07T02:55:44;3.80;99.90
62998;DHT22;55949;52.590;7.330;2022-12-07T02:56:55;3.80;99.90
62998;DHT22;55949;52.590;7.330;2022-12-07T03:00:09;3.60;99.90
62998;DHT22;55949;52.590;7.330;2022-12-07T03:01:18;3.60;99.90
62998;DHT22;55949;52.590;7.330;2022-12-07T03:03:29;3.60;99.90
62998;DHT22;55949;52.590;7.330;2022-12-07T03:05:53;3.50;99.90
62998;DHT22;55949;52.590;7.330;2022-12-07T03:07:46;3.60;99.90
62998;DHT22;55949;52.590;7.330;2022-12-07T03:08:48;3.70;99.90
62998;DHT22;55949;52.590;7.330;2022-12-07T03:10:07;3.70;99.90
62998;DHT22;55949;52.590;7.330;2022-12-07T03:11:29;3.60;99.90
62998;DHT22;55949;52.590;7.330;2022-12-07T03:12:44;3.60;99.90
62998;DHT22;55949;52.590;7.330;2022-12-07T03:14:02;3.50;99.90
62998;DHT22;55949;52.590;7.330;2022-12-07T03:15:12;3.60;99.90
62998;DHT22;55949;52.590;7.330;2022-12-07T03:17:21;3.40;99.90
62998;DHT22;55949;52.590;7.330;2022-12-07T03:18:28;3.40;99.90
62998;DHT22;55949;52.590;7.330;2022-12-07T03:19:31;3.40;99.90
62998;DHT22;55949;52.590;7.330;2022-12-07T03:20:35;3.40;99.90
62998;DHT22;55949;52.590;7.330;2022-12-07T03:21:40;3.40;99.90
62998;DHT22;55949;52.590;7.330;2022-12-07T03:22:43;3.50;99.90
62998;DHT22;55949;52.590;7.330;2022-12-07T03:23:49;3.50;99.90
62998;DHT22;55949;52.590;7.330;2022-12-07T03:24:54;3.50;99.90
62998;DHT22;55949;52.590;7.330;2022-12-07T03:26:00;3.40;99.90
62998;DHT22;55949;52.590;7.330;2022-12-07T03:27:09;3.30;99.90
62998;DHT22;55949;52.590;7.330;2022-12-07T03:28:14;3.40;99.90
62998;DHT22;55949;52.590;7.330;2022-12-07T03:29:27;3.40;99.90
62998;DHT22;55949;52.590;7.330;2022-12-07T03:30:36;3.50;99.90
62998;DHT22;55949;52.590;7.330;2022-12-07T03:31:42;3.50;99.90
62998;DHT22;55949;52.590;7.330;2022-12-07T03:34:14;3.50;99.90
62998;DHT22;55949;52.590;7.330;2022-12-07T03:37:44;3.60;99.90
62998;DHT22;55949;52.590;7.330;2022-12-07T03:39:14;3.50;99.90
62998;DHT22;55949;52.590;7.330;2022-12-07T03:41:34;3.60;99.90
62998;DHT22;55949;52.590;7.330;2022-12-07T03:42:37;3.70;99.90
62998;DHT22;55949;52.590;7.330;2022-12-07T03:43:40;3.70;99.90
62998;DHT22;55949;52.590;7.330;2022-12-07T03:44:41;3.70;99.90
62998;DHT22;55949;52.590;7.330;2022-12-07T03:45:49;3.70;99.90
62998;DHT22;55949;52.590;7.330;2022-12-07T03:49:04;3.50;99.90
62998;DHT22;55949;52.590;7.330;2022-12-07T03:49:51;3.70;99.90
62998;DHT22;55949;52.590;7.330;2022-12-07T03:53:50;3.40;99.90
62998;DHT22;55949;52.590;7.330;2022-12-07T03:56:12;3.60;99.90
62998;DHT22;55949;52.590;7.330;2022-12-07T03:57:13;3.60;99.90
62998;DHT22;55949;52.590;7.330;2022-12-07T03:58:17;3.70;99.90
62998;DHT22;55949;52.590;7.330;2022-12-07T03:59:19;3.80;99.90
62998;DHT22;55949;52.590;7.330;2022-12-07T04:00:21;3.70;99.90
62998;DHT22;55949;52.590;7.330;2022-12-07T04:01:23;3.60;99.90
62998;DHT22;55949;52.590;7.330;2022-12-07T04:02:25;3.60;99.90
62998;DHT22;55949;52.590;7.330;2022-12-07T04:03:27;3.50;99.90
62998;DHT22;55949;52.590;7.330;2022-12-07T04:04:28;3.60;99.90
62998;DHT22;55949;52.590;7.330;2022-12-07T04:05:29;3.50;99.90
62998;DHT22;55949;52.590;7.330;2022-12-07T04:06:30;3.50;99.90
62998;DHT22;55949;52.590;7.330;2022-12-07T04:07:30;3.60;99.90
62998;DHT22;55949;52.590;7.330;2022-12-07T04:08:31;3.60;99.90
62998;DHT22;55949;52.590;7.330;2022-12-07T04:09:32;3.60;99.90
62998;DHT22;55949;52.590;7.330;2022-12-07T04:10:33;3.60;99.90
62998;DHT22;55949;52.590;7.330;2022-12-07T04:11:33;3.60;99.90
62998;DHT22;55949;52.590;7.330;2022-12-07T04:12:34;3.60;99.90
62998;DHT22;55949;52.590;7.330;2022-12-07T04:13:35;3.60;99.90
62998;DHT22;55949;52.590;7.330;2022-12-07T04:14:55;3.50;99.90
62998;DHT22;55949;52.590;7.330;2022-12-07T04:15:56;3.50;99.90
62998;DHT22;55949;52.590;7.330;2022-12-07T04:16:58;3.40;99.90
62998;DHT22;55949;52.590;7.330;2022-12-07T04:17:59;3.50;99.90
62998;DHT22;55949;52.590;7.330;2022-12-07T04:18:59;3.40;99.90
62998;DHT22;55949;52.590;7.330;2022-12-07T04:20:00;3.40;99.90
62998;DHT22;55949;52.590;7.330;2022-12-07T04:21:01;3.50;99.90
62998;DHT22;55949;52.590;7.330;2022-12-07T04:22:03;3.40;99.90
62998;DHT22;55949;52.590;7.330;2022-12-07T04:23:04;3.50;99.90
62998;DHT22;55949;52.590;7.330;2022-12-07T04:24:05;3.50;99.90
62998;DHT22;55949;52.590;7.330;2022-12-07T04:25:06;3.40;99.90
62998;DHT22;55949;52.590;7.330;2022-12-07T04:26:07;3.40;99.90
62998;DHT22;55949;52.590;7.330;2022-12-07T04:27:07;3.50;99.90
62998;DHT22;55949;52.590;7.330;2022-12-07T04:28:08;3.50;99.90
62998;DHT22;55949;52.590;7.330;2022-12-07T04:29:10;3.50;99.90
62998;DHT22;55949;52.590;7.330;2022-12-07T04:30:11;3.60;99.90
62998;DHT22;55949;52.590;7.330;2022-12-07T04:31:11;3.70;99.90
62998;DHT22;55949;52.590;7.330;2022-12-07T04:32:12;3.60;99.90
62998;DHT22;55949;52.590;7.330;2022-12-07T04:33:13;3.70;99.90
62998;DHT22;55949;52.590;7.330;2022-12-07T04:34:14;3.70;99.90
62998;DHT22;55949;52.590;7.330;2022-12-07T04:35:15;3.70;99.90
62998;DHT22;55949;52.590;7.330;2022-12-07T04:36:16;3.70;99.90
62998;DHT22;55949;52.590;7.330;2022-12-07T04:37:17;3.60;99.90
62998;DHT22;55949;52.590;7.330;2022-12-07T04:38:17;3.60;99.90
62998;DHT22;55949;52.590;7.330;2022-12-07T04:39:21;3.60;99.90
62998;DHT22;55949;52.590;7.330;2022-12-07T04:40:22;3.70;99.90
62998;DHT22;55949;52.590;7.330;2022-12-07T04:41:24;3.70;99.90
62998;DHT22;55949;52.590;7.330;2022-12-07T04:42:28;3.60;99.90
62998;DHT22;55949;52.590;7.330;2022-12-07T04:43:28;3.60;99.90
62998;DHT22;55949;52.590;7.330;2022-12-07T04:44:29;3.50;99.90
62998;DHT22;55949;52.590;7.330;2022-12-07T04:45:30;3.40;99.90
62998;DHT22;55949;52.590;7.330;2022-12-07T04:46:31;3.40;99.90
62998;DHT22;55949;52.590;7.330;2022-12-07T04:47:32;3.40;99.90
62998;DHT22;55949;52.590;7.330;2022-12-07T04:48:33;3.40;99.90
62998;DHT22;55949;52.590;7.330;2022-12-07T04:49:34;3.50;99.90
62998;DHT22;55949;52.590;7.330;2022-12-07T04:50:35;3.60;99.90
62998;DHT22;55949;52.590;7.330;2022-12-07T04:51:38;3.70;99.90
62998;DHT22;55949;52.590;7.330;2022-12-07T04:52:39;3.80;99.90
62998;DHT22;55949;52.590;7.330;2022-12-07T04:53:39;3.90;99.90
62998;DHT22;55949;52.590;7.330;2022-12-07T04:54:40;3.90;99.90
62998;DHT22;55949;52.590;7.330;2022-12-07T04:55:41;3.90;99.90
62998;DHT22;55949;52.590;7.330;2022-12-07T04:56:42;4.00;99.90
62998;DHT22;55949;52.590;7.330;2022-12-07T04:57:43;4.00;99.90
62998;DHT22;55949;52.590;7.330;2022-12-07T04:58:45;4.20;99.90
62998;DHT22;55949;52.590;7.330;2022-12-07T04:59:46;4.30;99.90
62998;DHT22;55949;52.590;7.330;2022-12-07T05:00:47;4.40;99.90
62998;DHT22;55949;52.590;7.330;2022-12-07T05:01:48;4.50;99.90
62998;DHT22;55949;52.590;7.330;2022-12-07T05:02:49;4.40;99.90
62998;DHT22;55949;52.590;7.330;2022-12-07T05:03:50;4.40;99.90
62998;DHT22;55949;52.590;7.330;2022-12-07T05:04:50;4.20;99.90
62998;DHT22;55949;52.590;7.330;2022-12-07T05:05:51;4.20;99.90
62998;DHT22;55949;52.590;7.330;2022-12-07T05:06:52;4.10;99.90
62998;DHT22;55949;52.590;7.330;2022-12-07T05:07:53;4.10;99.90
62998;DHT22;55949;52.590;7.330;2022-12-07T05:08:54;4.20;99.90
62998;DHT22;55949;52.590;7.330;2022-12-07T05:09:55;4.10;99.90
62998;DHT22;55949;52.590;7.330;2022-12-07T05:10:55;4.00;99.90
62998;DHT22;55949;52.590;7.330;2022-12-07T05:11:56;4.00;99.90
62998;DHT22;55949;52.590;7.330;2022-12-07T05:12:57;3.80;99.90
62998;DHT22;55949;52.590;7.330;2022-12-07T05:13:58;3.70;99.90
62998;DHT22;55949;52.590;7.330;2022-12-07T05:14:59;3.60;99.90
62998;DHT22;55949;52.590;7.330;2022-12-07T05:16:00;3.60;99.90
62998;DHT22;55949;52.590;7.330;2022-12-07T05:17:01;3.50;99.90
62998;DHT22;55949;52.590;7.330;2022-12-07T05:18:01;3.50;99.90
62998;DHT22;55949;52.590;7.330;2022-12-07T05:19:04;3.50;99.90
62998;DHT22;55949;52.590;7.330;2022-12-07T05:20:06;3.50;99.90
62998;DHT22;55949;52.590;7.330;2022-12-07T05:21:06;3.50;99.90
62998;DHT22;55949;52.590;7.330;2022-12-07T05:22:07;3.50;99.90
62998;DHT22;55949;52.590;7.330;2022-12-07T05:23:08;3.50;99.90
62998;DHT22;55949;52.590;7.330;2022-12-07T05:24:11;3.50;99.90
62998;DHT22;55949;52.590;7.330;2022-12-07T05:25:12;3.50;99.90
62998;DHT22;55949;52.590;7.330;2022-12-07T05:26:12;3.40;99.90
62998;DHT22;55949;52.590;7.330;2022-12-07T05:27:13;3.40;99.90
62998;DHT22;55949;52.590;7.330;2022-12-07T05:28:14;3.40;99.90
62998;DHT22;55949;52.590;7.330;2022-12-07T05:29:16;3.40;99.90
62998;DHT22;55949;52.590;7.330;2022-12-07T05:30:17;3.40;99.90
62998;DHT22;55949;52.590;7.330;2022-12-07T05:31:18;3.30;99.90
62998;DHT22;55949;52.590;7.330;2022-12-07T05:32:19;3.40;99.90
62998;DHT22;55949;52.590;7.330;2022-12-07T05:33:19;3.30;99.90
62998;DHT22;55949;52.590;7.330;2022-12-07T05:34:20;3.20;99.90
62998;DHT22;55949;52.590;7.330;2022-12-07T05:35:21;3.20;99.90
62998;DHT22;55949;52.590;7.330;2022-12-07T05:36:22;3.20;99.90
62998;DHT22;55949;52.590;7.330;2022-12-07T05:37:23;3.20;99.90
62998;DHT22;55949;52.590;7.330;2022-12-07T05:38:24;3.20;99.90
62998;DHT22;55949;52.590;7.330;2022-12-07T05:39:25;3.10;99.90
62998;DHT22;55949;52.590;7.330;2022-12-07T05:40:26;3.10;99.90
62998;DHT22;55949;52.590;7.330;2022-12-07T05:41:27;3.10;99.90
62998;DHT22;55949;52.590;7.330;2022-12-07T05:42:46;3.10;99.90
62998;DHT22;55949;52.590;7.330;2022-12-07T05:43:47;3.10;99.90
62998;DHT22;55949;52.590;7.330;2022-12-07T05:44:47;3.10;99.90
62998;DHT22;55949;52.590;7.330;2022-12-07T05:45:48;3.10;99.90
62998;DHT22;55949;52.590;7.330;2022-12-07T05:46:49;3.10;99.90
62998;DHT22;55949;52.590;7.330;2022-12-07T05:47:50;3.10;99.90
62998;DHT22;55949;52.590;7.330;2022-12-07T05:48:50;3.10;99.90
62998;DHT22;55949;52.590;7.330;2022-12-07T05:49:51;3.10;99.90
62998;DHT22;55949;52.590;7.330;2022-12-07T05:50:52;3.10;99.90
62998;DHT22;55949;52.590;7.330;2022-12-07T05:51:53;3.20;99.90
62998;DHT22;55949;52.590;7.330;2022-12-07T05:52:54;3.20;99.90
62998;DHT22;55949;52.590;7.330;2022-12-07T05:53:55;3.10;99.90
62998;DHT22;55949;52.590;7.330;2022-12-07T05:54:55;3.20;99.90
62998;DHT22;55949;52.590;7.330;2022-12-07T05:55:56;3.10;99.90
62998;DHT22;55949;52.590;7.330;2022-12-07T05:56:57;3.10;99.90
62998;DHT22;55949;52.590;7.330;2022-12-07T05:57:58;3.20;99.90
62998;DHT22;55949;52.590;7.330;2022-12-07T05:59:17;3.00;99.90
62998;DHT22;55949;52.590;7.330;2022-12-07T06:00:24;3.00;99.90
62998;DHT22;55949;52.590;7.330;2022-12-07T06:01:25;3.00;99.90
62998;DHT22;55949;52.590;7.330;2022-12-07T06:02:26;3.00;99.90
62998;DHT22;55949;52.590;7.330;2022-12-07T06:03:26;3.00;99.90
62998;DHT22;55949;52.590;7.330;2022-12-07T06:04:30;2.90;99.90
62998;DHT22;55949;52.590;7.330;2022-12-07T06:05:31;2.90;99.90
62998;DHT22;55949;52.590;7.330;2022-12-07T06:06:32;2.90;99.90
62998;DHT22;55949;52.590;7.330;2022-12-07T06:07:33;2.90;99.90
62998;DHT22;55949;52.590;7.330;2022-12-07T06:08:33;2.90;99.90
62998;DHT22;55949;52.590;7.330;2022-12-07T06:09:35;2.90;99.90
62998;DHT22;55949;52.590;7.330;2022-12-07T06:10:35;2.80;99.90
62998;DHT22;55949;52.590;7.330;2022-12-07T06:11:36;2.80;99.90
62998;DHT22;55949;52.590;7.330;2022-12-07T06:12:55;2.80;99.90
62998;DHT22;55949;52.590;7.330;2022-12-07T06:13:56;2.80;99.90
62998;DHT22;55949;52.590;7.330;2022-12-07T06:14:57;2.80;99.90
62998;DHT22;55949;52.590;7.330;2022-12-07T06:15:58;2.80;99.90
62998;DHT22;55949;52.590;7.330;2022-12-07T06:16:59;2.90;99.90
62998;DHT22;55949;52.590;7.330;2022-12-07T06:18:00;3.00;99.90
62998;DHT22;55949;52.590;7.330;2022-12-07T06:19:00;2.90;99.90
62998;DHT22;55949;52.590;7.330;2022-12-07T06:20:02;2.90;99.90
62998;DHT22;55949;52.590;7.330;2022-12-07T06:21:03;2.90;99.90
62998;DHT22;55949;52.590;7.330;2022-12-07T06:22:04;2.90;99.90
62998;DHT22;55949;52.590;7.330;2022-12-07T06:23:05;2.90;99.90
62998;DHT22;55949;52.590;7.330;2022-12-07T06:24:07;2.90;99.90
62998;DHT22;55949;52.590;7.330;2022-12-07T06:25:07;2.90;99.90
62998;DHT22;55949;52.590;7.330;2022-12-07T06:26:09;3.00;99.90
62998;DHT22;55949;52.590;7.330;2022-12-07T06:27:10;3.00;99.90
62998;DHT22;55949;52.590;7.330;2022-12-07T06:28:11;3.10;99.90
62998;DHT22;55949;52.590;7.330;2022-12-07T06:29:12;3.10;99.90
62998;DHT22;55949;52.590;7.330;2022-12-07T06:30:13;3.10;99.90
62998;DHT22;55949;52.590;7.330;2022-12-07T06:31:14;3.10;99.90
62998;DHT22;55949;52.590;7.330;2022-12-07T06:32:15;3.10;99.90
62998;DHT22;55949;52.590;7.330;2022-12-07T06:33:16;3.10;99.90
62998;DHT22;55949;52.590;7.330;2022-12-07T06:34:19;3.10;99.90
62998;DHT22;55949;52.590;7.330;2022-12-07T06:35:20;3.10;99.90
62998;DHT22;55949;52.590;7.330;2022-12-07T06:36:21;3.20;99.90
62998;DHT22;55949;52.590;7.330;2022-12-07T06:37:22;3.10;99.90
62998;DHT22;55949;52.590;7.330;2022-12-07T06:38:22;3.00;99.90
62998;DHT22;55949;52.590;7.330;2022-12-07T06:39:25;3.10;99.90
62998;DHT22;55949;52.590;7.330;2022-12-07T06:40:30;3.10;99.90
62998;DHT22;55949;52.590;7.330;2022-12-07T06:41:31;3.00;99.90
62998;DHT22;55949;52.590;7.330;2022-12-07T06:42:32;3.00;99.90
62998;DHT22;55949;52.590;7.330;2022-12-07T06:43:33;2.90;99.90
62998;DHT22;55949;52.590;7.330;2022-12-07T06:44:34;2.90;99.90
62998;DHT22;55949;52.590;7.330;2022-12-07T06:45:34;3.00;99.90
62998;DHT22;55949;52.590;7.330;2022-12-07T06:46:35;3.00;99.90
62998;DHT22;55949;52.590;7.330;2022-12-07T06:47:36;3.00;99.90
62998;DHT22;55949;52.590;7.330;2022-12-07T06:48:37;2.90;99.90
62998;DHT22;55949;52.590;7.330;2022-12-07T06:49:37;2.90;99.90
62998;DHT22;55949;52.590;7.330;2022-12-07T06:50:38;2.80;99.90
62998;DHT22;55949;52.590;7.330;2022-12-07T06:51:39;2.80;99.90
62998;DHT22;55949;52.590;7.330;2022-12-07T06:52:41;2.80;99.90
62998;DHT22;55949;52.590;7.330;2022-12-07T06:53:42;2.80;99.90
62998;DHT22;55949;52.590;7.330;2022-12-07T06:54:43;2.80;99.90
62998;DHT22;55949;52.590;7.330;2022-12-07T06:55:43;2.80;99.90
62998;DHT22;55949;52.590;7.330;2022-12-07T06:56:44;2.70;99.90
62998;DHT22;55949;52.590;7.330;2022-12-07T06:57:45;2.80;99.90
62998;DHT22;55949;52.590;7.330;2022-12-07T06:58:46;2.80;99.90
62998;DHT22;55949;52.590;7.330;2022-12-07T06:59:47;2.80;99.90
62998;DHT22;55949;52.590;7.330;2022-12-07T07:00:48;2.90;99.90
62998;DHT22;55949;52.590;7.330;2022-12-07T07:01:50;2.90;99.90
62998;DHT22;55949;52.590;7.330;2022-12-07T07:02:51;2.90;99.90
62998;DHT22;55949;52.590;7.330;2022-12-07T07:03:52;2.90;99.90
62998;DHT22;55949;52.590;7.330;2022-12-07T07:04:53;2.80;99.90
62998;DHT22;55949;52.590;7.330;2022-12-07T07:05:53;2.80;99.90
62998;DHT22;55949;52.590;7.330;2022-12-07T07:06:54;2.80;99.90
62998;DHT22;55949;52.590;7.330;2022-12-07T07:07:55;2.80;99.90
62998;DHT22;55949;52.590;7.330;2022-12-07T07:08:55;2.80;99.90
62998;DHT22;55949;52.590;7.330;2022-12-07T07:09:56;2.80;99.90
62998;DHT22;55949;52.590;7.330;2022-12-07T07:10:57;2.80;99.90
62998;DHT22;55949;52.590;7.330;2022-12-07T07:11:58;2.80;99.90
62998;DHT22;55949;52.590;7.330;2022-12-07T07:12:58;2.70;99.90
62998;DHT22;55949;52.590;7.330;2022-12-07T07:13:59;2.70;99.90